Aviation Digital Data Service (ADDS)

Output produced by METARs form (2025 UTC 13 August 2020)
found at http://aviationweather.gov/metar/data/
 
KLAX 131953Z COR 25009KT 10SM FEW050 FEW080 BKN140 BKN180 27/11 A2990 RMK A02 SLP123 T02670106
KLAX 131853Z 28005KT 10SM FEW050 FEW075 BKN140 BKN180 27/12 A2989 RMK A02 SLP122 T02670122
KLAX 131753Z 27009KT 10SM FEW050 FEW080 BKN140 BKN180 22/14 A2992 RMK A02 SLP128 T02220144 10256 20189 52004
KLAX 131653Z VRB03KT 10SM FEW065 BKN130 BKN180 24/14 A2991 RMK A02 SLP126 T02440144
KLAX 131553Z COR 00000KT 10SM FEW065 BKN120 BKN180 23/12 A2991 RMK A02 SLP127 T02280122
KLAX 131453Z VRB03KT 10SM FEW060 BKN120 BKN180 21/14 A2991 RMK A02 SLP125 T02110139 53005
KLAX 131353Z 29003KT 10SM FEW050 FEW060 BKN120 BKN180 19/14 A2990 RMK A02 SLP122 FU FEW050 T01890144
KLAX 131253Z VRB04KT 10SM FEW050 FEW060 BKN120 BKN180 19/15 A2990 RMK SLP122 FU FEW050 T01940150 $
KLAX 131153Z 00000KT 10SM FEW060 BKN160 BKN220 20/14 A2989 RMK SLP119 T02000139 10200 20189 55006 $
KLAX 131053Z 00000KT 10SM BKN170 BKN220 19/14 A2989 RMK SLP119 T01940139 $
KLAX 130953Z 00000KT 10SM FEW150 BKN250 19/14 A2990 RMK SLP124 T01890139 $
KLAX 130853Z 35003KT 10SM FEW150 BKN250 19/14 A2991 RMK SLP125 T01890139 50001 $
KLAX 130753Z 26005KT 10SM FEW150 BKN250 19/14 A2992 RMK SLP130 T01890139 402280156 $
KLAX 130653Z COR 23003KT 10SM FEW150 19/13 A2991 RMK SLP125 T01890133 $
KLAX 130553Z 26005KT 10SM FEW150 19/15 A2991 RMK SLP125 T01940150 10211 20183 51016 $
KLAX 130453Z 22005KT 10SM FEW150 18/15 A2990 RMK SLP123 T01830150
KLAX 130353Z 27005KT 10SM SKC 18/15 A2988 RMK SLP116 T01830150
KLAX 130253Z 27007KT 10SM FEW050 FEW150 19/15 A2986 RMK SLP109 FU FEW050 T01890150 55002
KLAX 130153Z 26008KT 10SM FEW050 FEW150 19/15 A2986 RMK SLP109 FU FEW050 T01890150
KLAX 130053Z 27011KT 10SM FEW008 FEW050 SCT150 20/15 A2985 RMK SLP108 FU FEW050 T02000150
KLAX 122353Z 28012KT COR 10SM FEW052 FEW150 21/14 A2987 RMK SLP112 FU FEW052 T02110144 10228 20194 56009
KLAX 122253Z 27012KT 10SM FEW008 SCT150 20/15 A2988 RMK SLP115 T02000150
KLAX 122153Z 26013KT 10SM FEW005 SCT070 20/14 A2988 RMK SLP117 T02000144
KLAX 122053Z COR 27013KT 10SM FEW011 FEW045 SCT070 22/13 A2989 RMK A02 SLP121 T02220133 58008
KLAX 131746Z 1318/1424 00000KT P6SM VCSH FEW070 BKN120 
     FM131900 26012KT P6SM BKN120 
     FM140300 26006KT P6SM SCT150 
     FM140900 VRB03KT P6SM SCT150 
     FM141700 23006KT P6SM SCT150 
     FM142000 26010KT P6SM SCT150